Benton, CA (93512)

8:30 AM PDT on October 23, 2014 (GMT -0700)
RAWS DEXTER CA US | Change Station
CLOSE
Current Station
Personal Weather Station
Location: Benton, CA
Elevation: 7980 ft
Nearby Weather Stations

Elev 7980 ft 37.84 °N, 118.77 °W | Updated 37 minutes ago

Clear
Clear
51 °F
Feels Like 51 °F
N
6
Wind Variable Wind from NNE
Gusts 14.0 mph

Today
High -- | Low -- °F
--% Chance of Precip.
Yesterday
High -- | Low -- °F
Precip. -- in
7:10 AM 6:06 PM
Waning Crescent, 0% visible
Pressure 30.25 in
Visibility 10.0 miles
Clouds Clear
Dew Point 14 °F
Humidity 22%
Rainfall 0.00 in
Snow Depth Not available.
UV 1 out of 12
Pollen 2.60 out of 12
Air Quality Not available.
Flu Activity Sporadic
METAR KMMH 231515Z AUTO 00000KT 10SM CLR 03/M08 A3025 RMK AO1

More Conditions Fewer Conditions

Pressure 30.25 in
Visibility 10.0 miles
Clouds Clear
Dew Point 14 °F
Humidity 22%
Rainfall 0.00 in
Snow Depth Not available.
UV 1 out of 12
Pollen 2.60 out of 12
Air Quality Not available.
Flu Activity Sporadic
METAR KMMH 231515Z AUTO 00000KT 10SM CLR 03/M08 A3025 RMK AO1

More Conditions Fewer Conditions

10-Day Weather Forecast

Almanac

Astronomy

Oct. 23, 2014 Rise Set
Actual Time 7:10 AM PDT 6:06 PM PDT
Civil Twilight 6:44 AM PDT 6:33 PM PDT
Nautical Twilight 6:13 AM PDT 7:03 PM PDT
Astronomical Twilight 5:43 AM PDT 7:34 PM PDT
Moon 6:55 AM PDT 6:11 PM PDT
Length of Visible Light 11h 48m
Length of Day
10h 55m
Tomorrow will be 2m 15s shorter.
Waning Crescent, 0% of the Moon is Illuminated
Today
Waning Crescent
Oct 23
New
Oct 30
First Quarter
Nov 6
Full
Nov 14
Last Quarter

Today's Extremes

State Highs State Lows

Community

WunderPhotos

Upload Photos

1,764,285 photos uploaded!

Nearby

Snow Depth

Station Depth Elevation
Virginia Lakes Ridge 0 in 9200 ft
Leavitt Meadows 1 in 7200 ft
Leavitt Lake 1 in 9400 ft
Summit Meadow 1 in 9122 ft
Sonora Pass 0 in 8800 ft

Earthquake Activity

City Distance Mag. Time & Date
Kettleman City, California 148 miles 2.5 9:08 AM PDT
2014-10-22
Mammoth Lakes, California 24 miles 3.0 11:10 PM PDT
2014-10-20
Minimum magnitude displayed is 2.5.

Coastal Water Temperatures

Place Temperature
No Stations Reporting

Nearby Weather Stations